sensor_id;sensor_type;location;lat;lon;timestamp;pressure;altitude;pressure_sealevel;temperature;humidity
21401;BME280;18038;50.166;18.908;2023-01-28T00:00:55;98381.03;;;-3.72;64.79
21401;BME280;18038;50.166;18.908;2023-01-28T00:04:01;98385.56;;;-3.62;64.52
21401;BME280;18038;50.166;18.908;2023-01-28T00:07:07;98374.44;;;-3.78;64.54
21401;BME280;18038;50.166;18.908;2023-01-28T00:10:14;98373.44;;;-4.04;64.92
21401;BME280;18038;50.166;18.908;2023-01-28T00:13:21;98376.03;;;-4.04;65.15
21401;BME280;18038;50.166;18.908;2023-01-28T00:16:30;98389.84;;;-3.88;65.14
21401;BME280;18038;50.166;18.908;2023-01-28T00:19:36;98380.22;;;-3.87;65.11
21401;BME280;18038;50.166;18.908;2023-01-28T00:22:46;98381.91;;;-3.86;64.94
21401;BME280;18038;50.166;18.908;2023-01-28T00:25:57;98381.53;;;-3.94;64.82
21401;BME280;18038;50.166;18.908;2023-01-28T00:29:03;98375.19;;;-4.05;64.69
21401;BME280;18038;50.166;18.908;2023-01-28T00:32:14;98386.78;;;-4.09;64.99
21401;BME280;18038;50.166;18.908;2023-01-28T00:35:20;98378.56;;;-4.03;64.92
21401;BME280;18038;50.166;18.908;2023-01-28T00:38:27;98385.66;;;-3.90;64.75
21401;BME280;18038;50.166;18.908;2023-01-28T00:41:33;98382.47;;;-3.95;64.66
21401;BME280;18038;50.166;18.908;2023-01-28T00:44:40;98382.38;;;-3.94;64.63
21401;BME280;18038;50.166;18.908;2023-01-28T00:47:48;98383.59;;;-3.85;64.86
21401;BME280;18038;50.166;18.908;2023-01-28T00:50:55;98372.00;;;-3.81;64.23
21401;BME280;18038;50.166;18.908;2023-01-28T00:54:01;98370.53;;;-3.85;64.00
21401;BME280;18038;50.166;18.908;2023-01-28T00:57:08;98374.34;;;-3.76;64.16
21401;BME280;18038;50.166;18.908;2023-01-28T01:00:15;98370.00;;;-3.90;63.77
21401;BME280;18038;50.166;18.908;2023-01-28T01:03:26;98376.41;;;-3.82;64.59
21401;BME280;18038;50.166;18.908;2023-01-28T01:06:38;98371.06;;;-3.80;64.10
21401;BME280;18038;50.166;18.908;2023-01-28T01:09:48;98369.22;;;-3.78;64.14
21401;BME280;18038;50.166;18.908;2023-01-28T01:12:54;98372.22;;;-3.84;64.14
21401;BME280;18038;50.166;18.908;2023-01-28T01:16:03;98383.19;;;-3.93;64.41
21401;BME280;18038;50.166;18.908;2023-01-28T01:19:13;98375.00;;;-4.02;64.82
21401;BME280;18038;50.166;18.908;2023-01-28T01:22:20;98381.72;;;-3.97;64.99
21401;BME280;18038;50.166;18.908;2023-01-28T01:25:26;98381.63;;;-3.82;64.78
21401;BME280;18038;50.166;18.908;2023-01-28T01:28:33;98386.19;;;-3.85;65.01
21401;BME280;18038;50.166;18.908;2023-01-28T01:31:39;98391.59;;;-3.88;65.02
21401;BME280;18038;50.166;18.908;2023-01-28T01:34:48;98390.03;;;-4.05;65.43
21401;BME280;18038;50.166;18.908;2023-01-28T01:38:06;98392.91;;;-3.95;65.49
21401;BME280;18038;50.166;18.908;2023-01-28T01:41:23;98397.84;;;-3.91;65.40
21401;BME280;18038;50.166;18.908;2023-01-28T01:44:56;98395.63;;;-3.83;65.42
21401;BME280;18038;50.166;18.908;2023-01-28T01:48:16;98396.72;;;-3.87;65.25
21401;BME280;18038;50.166;18.908;2023-01-28T01:51:33;98401.09;;;-4.02;65.59
21401;BME280;18038;50.166;18.908;2023-01-28T01:54:46;98404.06;;;-3.93;65.19
21401;BME280;18038;50.166;18.908;2023-01-28T01:57:58;98406.53;;;-3.90;65.24
21401;BME280;18038;50.166;18.908;2023-01-28T02:01:10;98409.50;;;-3.96;65.05
21401;BME280;18038;50.166;18.908;2023-01-28T02:04:22;98409.41;;;-3.95;65.35
21401;BME280;18038;50.166;18.908;2023-01-28T02:07:35;98402.88;;;-3.88;65.39
21401;BME280;18038;50.166;18.908;2023-01-28T02:10:44;98407.56;;;-3.93;65.46
21401;BME280;18038;50.166;18.908;2023-01-28T02:14:00;98406.53;;;-3.90;65.31
21401;BME280;18038;50.166;18.908;2023-01-28T02:17:49;98399.88;;;-3.82;64.95
21401;BME280;18038;50.166;18.908;2023-01-28T02:21:15;98401.75;;;-3.84;64.94
21401;BME280;18038;50.166;18.908;2023-01-28T02:29:13;98397.78;;;-3.62;63.99
21401;BME280;18038;50.166;18.908;2023-01-28T02:32:32;98401.09;;;-3.73;64.22
21401;BME280;18038;50.166;18.908;2023-01-28T02:35:52;98402.00;;;-3.60;63.91
21401;BME280;18038;50.166;18.908;2023-01-28T02:39:24;98405.78;;;-3.51;63.61
21401;BME280;18038;50.166;18.908;2023-01-28T02:42:37;98404.59;;;-3.45;63.66
21401;BME280;18038;50.166;18.908;2023-01-28T02:45:47;98405.84;;;-3.38;63.23
21401;BME280;18038;50.166;18.908;2023-01-28T02:49:11;98394.50;;;-3.51;63.21
21401;BME280;18038;50.166;18.908;2023-01-28T02:52:43;98413.19;;;-3.58;63.75
21401;BME280;18038;50.166;18.908;2023-01-28T02:56:23;98417.34;;;-3.41;63.94
21401;BME280;18038;50.166;18.908;2023-01-28T02:59:44;98412.66;;;-3.36;63.34
21401;BME280;18038;50.166;18.908;2023-01-28T03:03:18;98413.88;;;-3.41;63.64
21401;BME280;18038;50.166;18.908;2023-01-28T03:06:36;98403.56;;;-3.43;63.81
21401;BME280;18038;50.166;18.908;2023-01-28T03:09:55;98414.09;;;-3.44;63.81
21401;BME280;18038;50.166;18.908;2023-01-28T03:13:05;98415.38;;;-3.37;63.44
21401;BME280;18038;50.166;18.908;2023-01-28T03:16:24;98407.63;;;-3.39;63.52
21401;BME280;18038;50.166;18.908;2023-01-28T03:19:47;98405.28;;;-3.29;63.47
21401;BME280;18038;50.166;18.908;2023-01-28T03:23:10;98403.91;;;-3.35;63.63
21401;BME280;18038;50.166;18.908;2023-01-28T03:26:42;98414.22;;;-3.33;63.89
21401;BME280;18038;50.166;18.908;2023-01-28T03:30:16;98411.19;;;-3.40;64.03
21401;BME280;18038;50.166;18.908;2023-01-28T03:33:46;98409.41;;;-3.39;64.23
21401;BME280;18038;50.166;18.908;2023-01-28T03:37:10;98413.53;;;-3.49;64.56
21401;BME280;18038;50.166;18.908;2023-01-28T03:40:24;98422.31;;;-3.50;64.88
21401;BME280;18038;50.166;18.908;2023-01-28T03:43:32;98419.94;;;-3.41;64.55
21401;BME280;18038;50.166;18.908;2023-01-28T03:46:48;98416.84;;;-3.33;64.61
21401;BME280;18038;50.166;18.908;2023-01-28T03:49:56;98415.06;;;-3.32;64.32
21401;BME280;18038;50.166;18.908;2023-01-28T03:53:22;98416.66;;;-3.30;64.57
21401;BME280;18038;50.166;18.908;2023-01-28T03:56:31;98414.22;;;-3.33;64.51
21401;BME280;18038;50.166;18.908;2023-01-28T03:59:38;98410.88;;;-3.35;64.23
21401;BME280;18038;50.166;18.908;2023-01-28T04:02:45;98408.72;;;-3.55;64.41
21401;BME280;18038;50.166;18.908;2023-01-28T04:05:59;98416.69;;;-3.44;65.02
21401;BME280;18038;50.166;18.908;2023-01-28T04:09:42;98420.88;;;-3.42;64.70
21401;BME280;18038;50.166;18.908;2023-01-28T04:13:07;98419.03;;;-3.40;65.31
21401;BME280;18038;50.166;18.908;2023-01-28T04:16:20;98421.28;;;-3.48;65.05
21401;BME280;18038;50.166;18.908;2023-01-28T04:19:27;98415.88;;;-3.45;65.12
21401;BME280;18038;50.166;18.908;2023-01-28T04:22:41;98427.63;;;-3.52;64.99
21401;BME280;18038;50.166;18.908;2023-01-28T04:25:51;98423.00;;;-3.61;65.35
21401;BME280;18038;50.166;18.908;2023-01-28T04:29:07;98421.56;;;-3.67;65.38
21401;BME280;18038;50.166;18.908;2023-01-28T04:32:13;98421.13;;;-3.73;65.91
21401;BME280;18038;50.166;18.908;2023-01-28T04:35:39;98429.59;;;-3.70;65.69
21401;BME280;18038;50.166;18.908;2023-01-28T04:38:55;98425.41;;;-3.58;65.73
21401;BME280;18038;50.166;18.908;2023-01-28T04:42:31;98431.25;;;-3.54;65.06
21401;BME280;18038;50.166;18.908;2023-01-28T04:45:49;98433.53;;;-3.63;65.31
21401;BME280;18038;50.166;18.908;2023-01-28T04:49:17;98429.19;;;-3.49;65.37
21401;BME280;18038;50.166;18.908;2023-01-28T04:52:45;98430.44;;;-3.55;64.89
21401;BME280;18038;50.166;18.908;2023-01-28T04:56:01;98430.03;;;-3.49;65.19
21401;BME280;18038;50.166;18.908;2023-01-28T04:59:18;98424.34;;;-3.41;64.90
21401;BME280;18038;50.166;18.908;2023-01-28T05:02:39;98437.59;;;-3.44;64.38
21401;BME280;18038;50.166;18.908;2023-01-28T05:05:45;98440.00;;;-3.41;64.43
21401;BME280;18038;50.166;18.908;2023-01-28T05:08:57;98435.94;;;-3.45;64.69
21401;BME280;18038;50.166;18.908;2023-01-28T05:12:04;98431.97;;;-3.38;64.59
21401;BME280;18038;50.166;18.908;2023-01-28T05:15:17;98427.63;;;-3.38;64.25
21401;BME280;18038;50.166;18.908;2023-01-28T05:18:29;98434.09;;;-3.72;64.71
21401;BME280;18038;50.166;18.908;2023-01-28T05:21:43;98441.44;;;-3.64;65.02
21401;BME280;18038;50.166;18.908;2023-01-28T05:24:59;98443.75;;;-3.60;64.57
21401;BME280;18038;50.166;18.908;2023-01-28T05:28:14;98447.75;;;-3.54;64.92
21401;BME280;18038;50.166;18.908;2023-01-28T05:31:24;98448.06;;;-3.73;64.84
21401;BME280;18038;50.166;18.908;2023-01-28T05:34:33;98461.03;;;-3.71;64.93
21401;BME280;18038;50.166;18.908;2023-01-28T05:37:45;98467.66;;;-3.66;65.31
21401;BME280;18038;50.166;18.908;2023-01-28T05:40:54;98459.81;;;-3.66;65.05
21401;BME280;18038;50.166;18.908;2023-01-28T05:44:00;98472.69;;;-3.63;64.90
21401;BME280;18038;50.166;18.908;2023-01-28T05:47:28;98475.94;;;-3.59;65.17
21401;BME280;18038;50.166;18.908;2023-01-28T05:50:39;98479.28;;;-3.57;64.94
21401;BME280;18038;50.166;18.908;2023-01-28T05:53:49;98476.22;;;-3.49;64.72
21401;BME280;18038;50.166;18.908;2023-01-28T05:56:57;98472.09;;;-3.39;64.33
21401;BME280;18038;50.166;18.908;2023-01-28T06:00:06;98478.44;;;-3.43;64.07
21401;BME280;18038;50.166;18.908;2023-01-28T06:03:18;98490.09;;;-3.35;63.97
21401;BME280;18038;50.166;18.908;2023-01-28T06:06:25;98490.09;;;-3.35;64.05
21401;BME280;18038;50.166;18.908;2023-01-28T06:09:31;98487.06;;;-3.55;64.37
21401;BME280;18038;50.166;18.908;2023-01-28T06:12:38;98502.97;;;-3.46;64.52
21401;BME280;18038;50.166;18.908;2023-01-28T06:16:04;98505.50;;;-3.44;63.78
21401;BME280;18038;50.166;18.908;2023-01-28T06:19:24;98512.44;;;-3.72;64.79
21401;BME280;18038;50.166;18.908;2023-01-28T06:22:30;98513.63;;;-3.63;64.72
21401;BME280;18038;50.166;18.908;2023-01-28T06:25:37;98513.06;;;-3.68;64.79
21401;BME280;18038;50.166;18.908;2023-01-28T06:28:46;98515.47;;;-3.65;65.15
21401;BME280;18038;50.166;18.908;2023-01-28T06:31:53;98515.47;;;-3.65;65.02
21401;BME280;18038;50.166;18.908;2023-01-28T06:35:01;98517.44;;;-3.83;65.02
21401;BME280;18038;50.166;18.908;2023-01-28T06:38:23;98528.44;;;-3.78;65.16
21401;BME280;18038;50.166;18.908;2023-01-28T06:41:29;98525.84;;;-3.64;64.98
21401;BME280;18038;50.166;18.908;2023-01-28T06:44:35;98525.53;;;-3.59;64.73
21401;BME280;18038;50.166;18.908;2023-01-28T06:47:41;98524.34;;;-3.53;65.05
21401;BME280;18038;50.166;18.908;2023-01-28T06:50:50;98530.19;;;-3.64;64.69
21401;BME280;18038;50.166;18.908;2023-01-28T06:53:57;98534.06;;;-3.55;64.60
21401;BME280;18038;50.166;18.908;2023-01-28T06:57:06;98542.91;;;-3.44;64.73
21401;BME280;18038;50.166;18.908;2023-01-28T07:00:13;98543.94;;;-3.61;64.41
21401;BME280;18038;50.166;18.908;2023-01-28T07:03:20;98543.75;;;-3.72;65.13
21401;BME280;18038;50.166;18.908;2023-01-28T07:06:29;98534.50;;;-3.78;65.20
21401;BME280;18038;50.166;18.908;2023-01-28T07:09:35;98526.00;;;-3.81;65.20
21401;BME280;18038;50.166;18.908;2023-01-28T07:12:41;98539.63;;;-3.76;65.51
21401;BME280;18038;50.166;18.908;2023-01-28T07:15:48;98550.78;;;-3.88;65.78
21401;BME280;18038;50.166;18.908;2023-01-28T07:18:54;98556.41;;;-3.80;66.00
21401;BME280;18038;50.166;18.908;2023-01-28T07:22:03;98558.09;;;-3.79;65.38
21401;BME280;18038;50.166;18.908;2023-01-28T07:25:11;98561.72;;;-3.82;65.95
21401;BME280;18038;50.166;18.908;2023-01-28T07:28:18;98560.88;;;-3.82;66.22
21401;BME280;18038;50.166;18.908;2023-01-28T07:31:25;98561.47;;;-3.77;66.62
21401;BME280;18038;50.166;18.908;2023-01-28T07:34:32;98567.41;;;-3.75;65.77
21401;BME280;18038;50.166;18.908;2023-01-28T07:37:41;98556.44;;;-3.66;65.83
21401;BME280;18038;50.166;18.908;2023-01-28T07:40:48;98571.53;;;-3.71;65.35
21401;BME280;18038;50.166;18.908;2023-01-28T07:43:54;98574.06;;;-3.69;65.66
21401;BME280;18038;50.166;18.908;2023-01-28T07:47:13;98573.84;;;-3.81;65.49
21401;BME280;18038;50.166;18.908;2023-01-28T07:50:21;98576.63;;;-3.84;65.81
21401;BME280;18038;50.166;18.908;2023-01-28T07:53:30;98568.72;;;-3.82;65.92
21401;BME280;18038;50.166;18.908;2023-01-28T07:56:36;98577.38;;;-3.82;66.32
21401;BME280;18038;50.166;18.908;2023-01-28T07:59:42;98578.88;;;-3.78;65.82
21401;BME280;18038;50.166;18.908;2023-01-28T08:02:49;98571.41;;;-3.84;65.88
21401;BME280;18038;50.166;18.908;2023-01-28T08:06:00;98573.38;;;-3.73;65.79
21401;BME280;18038;50.166;18.908;2023-01-28T08:09:08;98584.50;;;-3.69;65.53
21401;BME280;18038;50.166;18.908;2023-01-28T08:12:15;98587.50;;;-3.61;65.56
21401;BME280;18038;50.166;18.908;2023-01-28T08:15:21;98587.19;;;-3.71;65.80
21401;BME280;18038;50.166;18.908;2023-01-28T08:18:32;98580.69;;;-3.49;65.71
21401;BME280;18038;50.166;18.908;2023-01-28T08:21:37;98581.44;;;-3.47;64.81
21401;BME280;18038;50.166;18.908;2023-01-28T08:24:47;98591.50;;;-3.55;64.80
21401;BME280;18038;50.166;18.908;2023-01-28T08:27:52;98596.34;;;-3.49;65.09
21401;BME280;18038;50.166;18.908;2023-01-28T08:30:59;98598.50;;;-3.56;64.97
21401;BME280;18038;50.166;18.908;2023-01-28T08:34:08;98595.84;;;-3.70;65.46
21401;BME280;18038;50.166;18.908;2023-01-28T08:37:18;98594.47;;;-3.33;64.82
21401;BME280;18038;50.166;18.908;2023-01-28T08:40:27;98593.38;;;-3.29;64.19
21401;BME280;18038;50.166;18.908;2023-01-28T08:43:34;98589.91;;;-3.15;64.27
21401;BME280;18038;50.166;18.908;2023-01-28T08:46:40;98603.97;;;-3.03;63.55
21401;BME280;18038;50.166;18.908;2023-01-28T08:49:46;98612.28;;;-2.97;63.21
21401;BME280;18038;50.166;18.908;2023-01-28T08:52:57;98606.59;;;-3.18;63.64
21401;BME280;18038;50.166;18.908;2023-01-28T08:56:08;98608.00;;;-3.12;63.58
21401;BME280;18038;50.166;18.908;2023-01-28T08:59:15;98609.94;;;-3.01;63.66
21401;BME280;18038;50.166;18.908;2023-01-28T09:02:22;98611.06;;;-2.91;63.00
21401;BME280;18038;50.166;18.908;2023-01-28T09:05:34;98595.13;;;-3.15;63.24
21401;BME280;18038;50.166;18.908;2023-01-28T09:08:41;98611.28;;;-3.08;63.29
21401;BME280;18038;50.166;18.908;2023-01-28T09:11:49;98610.16;;;-2.90;63.10
21401;BME280;18038;50.166;18.908;2023-01-28T09:14:56;98613.41;;;-2.86;62.51
21401;BME280;18038;50.166;18.908;2023-01-28T09:18:05;98611.97;;;-2.78;62.77
21401;BME280;18038;50.166;18.908;2023-01-28T09:21:11;98618.13;;;-2.64;62.23
21401;BME280;18038;50.166;18.908;2023-01-28T09:24:23;98610.78;;;-2.45;61.63
21401;BME280;18038;50.166;18.908;2023-01-28T09:27:32;98613.91;;;-2.53;61.69
21401;BME280;18038;50.166;18.908;2023-01-28T09:30:38;98616.44;;;-2.65;61.96
21401;BME280;18038;50.166;18.908;2023-01-28T09:33:54;98609.19;;;-2.89;61.63
21401;BME280;18038;50.166;18.908;2023-01-28T09:37:15;98619.94;;;-2.79;62.16
21401;BME280;18038;50.166;18.908;2023-01-28T09:40:30;98624.16;;;-3.05;62.46
21401;BME280;18038;50.166;18.908;2023-01-28T09:43:55;98610.44;;;-3.09;62.98
21401;BME280;18038;50.166;18.908;2023-01-28T09:47:23;98623.00;;;-2.73;62.54
21401;BME280;18038;50.166;18.908;2023-01-28T09:50:37;98617.84;;;-2.60;61.61
21401;BME280;18038;50.166;18.908;2023-01-28T09:53:52;98620.16;;;-2.55;60.97
21401;BME280;18038;50.166;18.908;2023-01-28T09:57:10;98609.09;;;-2.46;61.31
21401;BME280;18038;50.166;18.908;2023-01-28T10:00:23;98614.63;;;-2.51;61.30
21401;BME280;18038;50.166;18.908;2023-01-28T10:03:48;98608.59;;;-2.38;60.88
21401;BME280;18038;50.166;18.908;2023-01-28T10:07:15;98605.50;;;-2.58;61.00
21401;BME280;18038;50.166;18.908;2023-01-28T10:10:38;98610.78;;;-2.45;61.05
21401;BME280;18038;50.166;18.908;2023-01-28T10:13:59;98606.91;;;-2.66;61.38
21401;BME280;18038;50.166;18.908;2023-01-28T10:17:21;98608.59;;;-2.65;61.48
21401;BME280;18038;50.166;18.908;2023-01-28T10:20:39;98604.50;;;-2.42;61.12
21401;BME280;18038;50.166;18.908;2023-01-28T10:23:58;98597.09;;;-2.63;61.60
21401;BME280;18038;50.166;18.908;2023-01-28T10:27:18;98602.84;;;-2.85;61.35
21401;BME280;18038;50.166;18.908;2023-01-28T10:30:30;98602.06;;;-2.73;61.54
21401;BME280;18038;50.166;18.908;2023-01-28T10:33:47;98606.88;;;-2.79;62.09
21401;BME280;18038;50.166;18.908;2023-01-28T10:36:57;98609.03;;;-2.59;61.40
21401;BME280;18038;50.166;18.908;2023-01-28T10:40:17;98614.94;;;-2.55;61.23
21401;BME280;18038;50.166;18.908;2023-01-28T10:43:28;98611.00;;;-2.62;61.73
21401;BME280;18038;50.166;18.908;2023-01-28T10:46:36;98611.97;;;-2.63;61.44
21401;BME280;18038;50.166;18.908;2023-01-28T10:49:52;98614.47;;;-2.62;61.31
21401;BME280;18038;50.166;18.908;2023-01-28T10:53:07;98622.16;;;-2.87;61.57
21401;BME280;18038;50.166;18.908;2023-01-28T10:56:16;98616.56;;;-2.96;62.63
21401;BME280;18038;50.166;18.908;2023-01-28T10:59:33;98606.66;;;-2.76;62.36
21401;BME280;18038;50.166;18.908;2023-01-28T11:02:43;98616.94;;;-2.73;62.29
21401;BME280;18038;50.166;18.908;2023-01-28T11:05:54;98614.19;;;-2.72;62.02
21401;BME280;18038;50.166;18.908;2023-01-28T11:09:01;98621.69;;;-2.65;61.58
21401;BME280;18038;50.166;18.908;2023-01-28T11:12:12;98618.50;;;-2.85;61.72
21401;BME280;18038;50.166;18.908;2023-01-28T11:15:23;98612.25;;;-2.82;61.61
21401;BME280;18038;50.166;18.908;2023-01-28T11:18:34;98607.81;;;-2.53;61.39
21401;BME280;18038;50.166;18.908;2023-01-28T11:21:53;98590.78;;;-2.73;61.25
21401;BME280;18038;50.166;18.908;2023-01-28T11:25:13;98597.53;;;-2.56;60.41
21401;BME280;18038;50.166;18.908;2023-01-28T11:28:25;98593.47;;;-2.60;60.47
21401;BME280;18038;50.166;18.908;2023-01-28T11:31:40;98598.63;;;-2.46;60.20
21401;BME280;18038;50.166;18.908;2023-01-28T11:34:50;98594.16;;;-2.44;60.07
21401;BME280;18038;50.166;18.908;2023-01-28T11:38:02;98597.41;;;-2.13;59.59
21401;BME280;18038;50.166;18.908;2023-01-28T11:41:14;98593.13;;;-2.02;59.71
21401;BME280;18038;50.166;18.908;2023-01-28T11:44:24;98595.63;;;-2.13;59.19
21401;BME280;18038;50.166;18.908;2023-01-28T11:47:46;98596.03;;;-2.06;59.35
21401;BME280;18038;50.166;18.908;2023-01-28T11:51:23;98594.06;;;-1.90;59.34
21401;BME280;18038;50.166;18.908;2023-01-28T11:54:56;98584.13;;;-1.85;58.99
21401;BME280;18038;50.166;18.908;2023-01-28T11:58:20;98572.41;;;-1.79;59.02
21401;BME280;18038;50.166;18.908;2023-01-28T12:01:42;98585.94;;;-1.72;58.71
21401;BME280;18038;50.166;18.908;2023-01-28T12:05:15;98582.47;;;-1.73;58.95
21401;BME280;18038;50.166;18.908;2023-01-28T12:08:40;98591.09;;;-2.23;59.60
21401;BME280;18038;50.166;18.908;2023-01-28T12:12:12;98588.72;;;-2.01;59.67
21401;BME280;18038;50.166;18.908;2023-01-28T12:15:51;98588.22;;;-1.81;59.73
21401;BME280;18038;50.166;18.908;2023-01-28T12:19:18;98585.19;;;-1.74;59.43
21401;BME280;18038;50.166;18.908;2023-01-28T12:22:55;98578.03;;;-1.98;60.14
21401;BME280;18038;50.166;18.908;2023-01-28T12:26:17;98578.09;;;-2.25;60.52
21401;BME280;18038;50.166;18.908;2023-01-28T12:29:43;98572.75;;;-2.23;60.73
21401;BME280;18038;50.166;18.908;2023-01-28T12:33:12;98580.00;;;-2.14;61.28
21401;BME280;18038;50.166;18.908;2023-01-28T12:36:49;98580.69;;;-2.25;61.84
21401;BME280;18038;50.166;18.908;2023-01-28T12:40:20;98575.50;;;-2.12;61.91
21401;BME280;18038;50.166;18.908;2023-01-28T12:43:54;98582.28;;;-2.22;61.66
21401;BME280;18038;50.166;18.908;2023-01-28T12:47:14;98581.56;;;-2.12;61.70
21401;BME280;18038;50.166;18.908;2023-01-28T12:50:30;98588.63;;;-2.27;62.32
21401;BME280;18038;50.166;18.908;2023-01-28T12:53:49;98601.72;;;-2.27;61.97
21401;BME280;18038;50.166;18.908;2023-01-28T12:57:01;98596.34;;;-2.38;62.33
21401;BME280;18038;50.166;18.908;2023-01-28T13:00:23;98595.81;;;-2.03;62.12
21401;BME280;18038;50.166;18.908;2023-01-28T13:03:42;98593.16;;;-1.89;61.79
21401;BME280;18038;50.166;18.908;2023-01-28T13:07:01;98590.91;;;-1.95;61.71
21401;BME280;18038;50.166;18.908;2023-01-28T13:10:18;98595.22;;;-1.94;62.29
21401;BME280;18038;50.166;18.908;2023-01-28T13:13:32;98602.59;;;-1.73;62.07
21401;BME280;18038;50.166;18.908;2023-01-28T13:16:41;98612.94;;;-1.85;61.42
21401;BME280;18038;50.166;18.908;2023-01-28T13:19:50;98608.44;;;-1.83;61.78
21401;BME280;18038;50.166;18.908;2023-01-28T13:23:00;98615.97;;;-1.91;62.19
21401;BME280;18038;50.166;18.908;2023-01-28T13:26:24;98618.75;;;-2.07;62.37
21401;BME280;18038;50.166;18.908;2023-01-28T13:29:35;98612.69;;;-2.07;62.50
21401;BME280;18038;50.166;18.908;2023-01-28T13:32:42;98618.25;;;-1.99;62.52
21401;BME280;18038;50.166;18.908;2023-01-28T13:36:19;98617.31;;;-1.98;62.56
21401;BME280;18038;50.166;18.908;2023-01-28T13:39:34;98599.28;;;-2.15;62.38
21401;BME280;18038;50.166;18.908;2023-01-28T13:42:41;98610.63;;;-2.02;62.62
21401;BME280;18038;50.166;18.908;2023-01-28T13:45:55;98623.50;;;-1.99;62.87
21401;BME280;18038;50.166;18.908;2023-01-28T13:49:16;98637.16;;;-2.21;63.27
21401;BME280;18038;50.166;18.908;2023-01-28T13:52:36;98631.94;;;-2.08;62.69
21401;BME280;18038;50.166;18.908;2023-01-28T13:55:54;98634.53;;;-2.21;63.20
21401;BME280;18038;50.166;18.908;2023-01-28T13:59:30;98629.94;;;-2.17;62.73
21401;BME280;18038;50.166;18.908;2023-01-28T14:03:27;98626.78;;;-2.50;64.04
21401;BME280;18038;50.166;18.908;2023-01-28T14:07:06;98623.31;;;-2.50;64.35
21401;BME280;18038;50.166;18.908;2023-01-28T14:10:42;98625.94;;;-2.50;64.33
21401;BME280;18038;50.166;18.908;2023-01-28T14:14:27;98635.25;;;-2.46;64.47
21401;BME280;18038;50.166;18.908;2023-01-28T14:17:49;98634.34;;;-2.45;64.35
21401;BME280;18038;50.166;18.908;2023-01-28T14:21:00;98640.88;;;-2.52;64.15
21401;BME280;18038;50.166;18.908;2023-01-28T14:24:16;98638.50;;;-2.42;64.71
21401;BME280;18038;50.166;18.908;2023-01-28T14:27:34;98637.59;;;-2.41;64.63
21401;BME280;18038;50.166;18.908;2023-01-28T14:30:52;98638.53;;;-2.15;64.38
21401;BME280;18038;50.166;18.908;2023-01-28T14:34:10;98632.69;;;-2.06;63.57
21401;BME280;18038;50.166;18.908;2023-01-28T14:37:28;98648.09;;;-2.02;63.57
21401;BME280;18038;50.166;18.908;2023-01-28T14:40:38;98649.34;;;-2.07;63.46
21401;BME280;18038;50.166;18.908;2023-01-28T14:43:48;98648.03;;;-2.14;63.96
21401;BME280;18038;50.166;18.908;2023-01-28T14:47:10;98646.94;;;-2.10;63.62
21401;BME280;18038;50.166;18.908;2023-01-28T14:50:52;98652.03;;;-2.09;63.76
21401;BME280;18038;50.166;18.908;2023-01-28T14:54:32;98654.94;;;-2.26;63.93
21401;BME280;18038;50.166;18.908;2023-01-28T14:57:55;98651.84;;;-2.33;64.27
21401;BME280;18038;50.166;18.908;2023-01-28T15:01:20;98659.97;;;-2.37;64.35
21401;BME280;18038;50.166;18.908;2023-01-28T15:04:31;98660.44;;;-2.31;64.48
21401;BME280;18038;50.166;18.908;2023-01-28T15:07:42;98662.81;;;-2.40;64.68
21401;BME280;18038;50.166;18.908;2023-01-28T15:10:52;98650.88;;;-2.44;64.70
21401;BME280;18038;50.166;18.908;2023-01-28T15:14:01;98669.59;;;-2.23;64.97
21401;BME280;18038;50.166;18.908;2023-01-28T15:17:22;98671.81;;;-2.17;64.55
21401;BME280;18038;50.166;18.908;2023-01-28T15:20:32;98673.69;;;-2.19;64.15
21401;BME280;18038;50.166;18.908;2023-01-28T15:23:40;98670.69;;;-2.13;64.22
21401;BME280;18038;50.166;18.908;2023-01-28T15:26:48;98652.50;;;-2.29;64.00
21401;BME280;18038;50.166;18.908;2023-01-28T15:29:56;98677.19;;;-2.06;64.28
21401;BME280;18038;50.166;18.908;2023-01-28T15:33:12;98674.56;;;-2.06;64.14
21401;BME280;18038;50.166;18.908;2023-01-28T15:36:20;98682.13;;;-2.02;64.03
21401;BME280;18038;50.166;18.908;2023-01-28T15:39:28;98686.22;;;-1.97;64.00
21401;BME280;18038;50.166;18.908;2023-01-28T15:42:34;98690.94;;;-2.03;63.68
21401;BME280;18038;50.166;18.908;2023-01-28T15:45:44;98690.28;;;-2.06;64.32
21401;BME280;18038;50.166;18.908;2023-01-28T15:48:58;98693.84;;;-2.07;64.02
21401;BME280;18038;50.166;18.908;2023-01-28T15:52:08;98694.88;;;-2.10;64.32
21401;BME280;18038;50.166;18.908;2023-01-28T15:55:32;98687.44;;;-2.16;64.27
21401;BME280;18038;50.166;18.908;2023-01-28T15:58:42;98711.13;;;-2.05;64.33
21401;BME280;18038;50.166;18.908;2023-01-28T16:01:48;98715.88;;;-1.97;64.29
21401;BME280;18038;50.166;18.908;2023-01-28T16:04:59;98713.97;;;-1.95;64.15
21401;BME280;18038;50.166;18.908;2023-01-28T16:08:17;98713.88;;;-1.93;64.25
21401;BME280;18038;50.166;18.908;2023-01-28T16:11:34;98714.97;;;-2.10;64.45
21401;BME280;18038;50.166;18.908;2023-01-28T16:14:49;98716.22;;;-2.16;65.15
21401;BME280;18038;50.166;18.908;2023-01-28T16:17:59;98712.00;;;-2.18;65.17
21401;BME280;18038;50.166;18.908;2023-01-28T16:21:11;98711.84;;;-2.30;65.72
21401;BME280;18038;50.166;18.908;2023-01-28T16:24:25;98716.22;;;-2.16;65.97
21401;BME280;18038;50.166;18.908;2023-01-28T16:27:33;98713.28;;;-2.11;66.23
21401;BME280;18038;50.166;18.908;2023-01-28T16:30:40;98720.59;;;-2.16;66.68
21401;BME280;18038;50.166;18.908;2023-01-28T16:33:47;98721.53;;;-2.17;66.49
21401;BME280;18038;50.166;18.908;2023-01-28T16:36:57;98701.75;;;-2.36;67.01
21401;BME280;18038;50.166;18.908;2023-01-28T16:40:22;98723.31;;;-2.18;66.69
21401;BME280;18038;50.166;18.908;2023-01-28T16:43:36;98726.22;;;-2.22;67.17
21401;BME280;18038;50.166;18.908;2023-01-28T16:46:46;98734.16;;;-2.24;67.08
21401;BME280;18038;50.166;18.908;2023-01-28T16:49:52;98728.84;;;-2.22;67.17
21401;BME280;18038;50.166;18.908;2023-01-28T16:53:01;98728.28;;;-2.28;67.46
21401;BME280;18038;50.166;18.908;2023-01-28T16:56:12;98728.19;;;-2.26;67.44
21401;BME280;18038;50.166;18.908;2023-01-28T16:59:37;98727.44;;;-2.28;67.88
21401;BME280;18038;50.166;18.908;2023-01-28T17:02:44;98739.91;;;-2.32;67.94